LiveATC.Net - Listen to live air traffic control over the Internet!


ICAO: C29  IATA: C29   Airport: Middleton Municipal Airport - Morey Field
City: Middleton   State/Province: Wisconsin
Country: United States   Continent: North America
KC29 METAR Weather: KC29 181915Z AUTO 27007KT 10SM SCT050 27/15 A3000 RMK AO1 T02710145
C29 ADS-B Flight Tracking (ADSBExchange)
C29 Flight Activity (FlightAware)

C29 CTAF
Feed Status: UP   Listeners: 0
Listen in your browser - HTML5 player (in browser, HTML5)
Click here to listen with your own player (launches your MP3 player)
Archive Access: C29 CTAF
FacilityFrequency
Morey CTAF123.000

NOTICE

Unauthorized use prohibited. See LiveATC.net Terms of Service


Airport/ARTCC Code
Frequency Search
(e.g., 124.400, 128.75)
Site-wide search
 


Browse Feeds
Top 50 Feeds
HF Oceanic Feeds
Coverage Map
Bad Weather Areas

LiveATC FAQ
Offer LiveATC feed
Contact LiveATC.net
Press Inquiries

LiveATC on iPhone
LiveATC on Android

LiveATC Mobile
(Mobile browser)

ATC Audio Archives
Interesting Recordings

LiveATC Forums


Home Page
About LiveATC.net


Terms of Use
Privacy Policy

AIRMETs/SIGMETs

FAA Airport Status
NAS Status
Arrival Demand


Server Software By:
Icecast.org
Liquidsoap